Latest Weather Observations for Coondewanna

IDW60801

Issued at 6:35 am WST Tuesday 25 November 2014 (issued every 30 minutes, with the page automatically refreshed every 10 minutes)

About weather observations | Map of weather stations | Latest weather observations for WA | Other Formats
Station Details ID: 505051 Name: COONDEWANNA Lat: -22.96 Lon: 118.81 Height: 697.63 m
Data from the previous 72 hours. | See also: Recent months for locations in Western Australia
Date/Time
WST
Temp
°C
App
Temp
°C
Dew
Point
Rel
Hum
%
Delta-T
°C
Wind Press
QNH
hPa
Press
MSL
hPa
Rain
since 9 am
mm
Dir
 
Spd
km/h
Gust
km/h
Spd
kts
Gust
kts
25/06:30am 27.7 27.4 8.6 30 10.8 SE 0 0 0 0 1014.5 1009.0 0.0
25/06:00am 25.8 24.3 8.3 33 9.7 SE 6 9 3 5 1014.3 1008.8 0.0
25/05:30am 25.0 23.0 8.5 35 9.2 SE 9 11 5 6 1014.1 1008.6 0.0
25/05:00am 25.0 23.2 8.1 34 9.3 SE 7 9 4 5 1013.7 1008.2 0.0
25/04:30am 26.6 24.8 8.1 31 10.3 SE 7 15 4 8 1013.4 1008.0 0.0
25/04:00am 25.0 24.1 7.6 33 9.5 SE 2 7 1 4 1013.4 1008.0 0.0
25/03:30am 26.9 24.7 7.9 30 10.5 WSW 9 13 5 7 1013.2 1007.7 0.0
25/03:00am 27.0 24.3 7.5 29 10.8 SSE 11 15 6 8 1013.0 1007.5 0.0
25/02:30am 25.7 23.6 6.8 30 10.2 S 7 9 4 5 1012.9 1007.4 0.0
25/02:00am 26.5 24.4 6.5 28 10.8 NE 7 11 4 6 1012.6 1007.1 0.0
25/01:30am 26.7 24.6 6.7 28 10.9 E 7 11 4 6 1012.8 1007.3 0.0
25/01:00am 27.9 24.3 6.6 26 11.6 ENE 15 19 8 10 1013.1 1007.6 0.0
25/12:30am 27.9 24.6 6.6 26 11.6 E 13 20 7 11 1013.3 1007.8 0.0
25/12:00am 26.2 24.0 7.7 31 10.2 E 9 15 5 8 1013.2 1007.7 0.0
 
Date/Time
WST
Temp
°C
App
Temp
°C
Dew
Point
Rel
Hum
%
Delta-T
°C
Wind Press
QNH
hPa
Press
MSL
hPa
Rain
since 9 am
mm
Dir
 
Spd
km/h
Gust
km/h
Spd
kts
Gust
kts
24/11:30pm 27.2 26.5 7.1 28 11.0 CALM 0 0 0 0 1013.2 1007.7 0.0
24/11:00pm 27.9 25.4 6.6 26 11.6 S 9 17 5 9 1013.2 1007.7 0.0
24/10:30pm 28.8 26.8 6.2 24 12.3 SSW 6 7 3 4 1013.5 1008.1 0.0
24/10:00pm 29.7 27.0 5.7 22 13.0 SSW 9 11 5 6 1013.3 1007.8 0.0
24/09:30pm 30.3 27.2 5.6 21 13.4 SW 11 17 6 9 1013.4 1008.0 0.0
24/09:00pm 30.8 27.6 5.3 20 13.8 SSW 11 15 6 8 1013.2 1007.7 0.0
24/08:30pm 31.7 26.5 5.3 19 14.4 WSW 22 30 12 16 1013.0 1007.5 0.0
24/08:00pm 31.4 30.1 5.8 20 14.0 N 2 7 1 4 1012.6 1007.1 0.0
24/07:30pm 31.5 29.6 6.5 21 13.9 N 6 7 3 4 1012.3 1006.8 0.0
24/07:00pm 32.7 30.2 4.5 17 15.3 N 7 9 4 5 1011.9 1006.4 0.0
24/06:30pm 34.2 31.4 2.9 14 16.6 N 7 7 4 4 1011.7 1006.2 0.0
24/06:00pm 35.1 32.8 2.6 13 17.3 N 4 7 2 4 1011.5 1006.0 0.0
24/05:30pm 35.5 31.9 0.6 11 18.0 N 9 13 5 7 1011.3 1005.8 0.0
24/05:00pm 36.1 31.8 1.0 11 18.3 NNE 13 17 7 9 1011.2 1005.7 0.0
24/04:30pm 36.1 32.9 1.0 11 18.3 N 7 13 4 7 1011.3 1005.8 0.0
24/04:00pm 36.4 33.3 1.2 11 18.5 NNW 7 15 4 8 1011.3 1005.8 0.0
24/03:30pm 37.7 34.4 2.2 11 19.0 E 9 19 5 10 1011.4 1005.9 0.0
24/03:00pm 36.6 32.7 1.4 11 18.5 N 11 19 6 10 1011.8 1006.3 0.0
24/02:30pm 36.7 32.5 1.5 11 18.5 N 13 24 7 13 1012.2 1006.7 0.0
24/02:00pm 35.2 32.1 1.5 12 17.6 NNE 7 11 4 6 1012.5 1007.0 0.0
24/01:30pm 35.6 31.6 0.6 11 18.1 N 11 20 6 11 1012.9 1007.4 0.0
24/01:00pm 36.5 33.4 1.3 11 18.5 E 7 13 4 7 1013.2 1007.7 0.0
24/12:30pm 36.1 30.7 2.2 12 18.0 N 20 30 11 16 1013.7 1008.2 0.0
24/12:00pm 35.8 31.7 2.0 12 17.9 ENE 13 22 7 12 1013.9 1008.4 0.0
24/11:30am 35.4 30.8 1.7 12 17.7 E 15 20 8 11 1014.4 1008.9 0.0
24/11:00am 35.0 29.4 1.4 12 17.5 E 20 26 11 14 1014.8 1009.4 0.0
24/10:30am 34.6 29.0 1.1 12 17.3 E 20 50 11 27 1015.0 1009.6 0.0
24/10:00am 33.5 27.5 1.3 13 16.6 E 22 32 12 17 1015.4 1009.9 0.0
24/09:30am 33.0 27.5 2.0 14 16.1 ESE 20 32 11 17 1015.5 1010.0 0.0
24/09:00am 32.9 27.4 1.9 14 16.1 ESE 20 33 11 18 1015.8 1010.3 0.0
24/08:30am 31.2 23.9 2.4 16 14.9 ESE 30 37 16 20 1015.7 1010.2 0.0
24/08:00am 30.4 22.6 2.6 17 14.4 ESE 33 41 18 22 1015.5 1010.0 0.0
24/07:30am 29.4 21.4 1.8 17 14.0 ESE 33 43 18 23 1015.5 1010.0 0.0
24/07:00am 28.9 22.7 2.2 18 13.6 ESE 24 37 13 20 1015.6 1010.1 0.0
24/06:30am 28.3 25.0 2.5 19 13.2 SSE 9 20 5 11 1015.6 1010.1 0.0
24/06:00am 24.8 22.8 4.5 27 10.5 SSW 4 7 2 4 1015.6 1010.1 0.0
24/05:30am 22.8 20.4 5.3 32 9.1 SSW 7 9 4 5 1015.3 1009.8 0.0
24/05:00am 23.4 20.1 4.4 29 9.7 S 11 15 6 8 1014.8 1009.4 0.0
24/04:30am 22.4 20.0 5.4 33 8.8 SSW 7 9 4 5 1014.6 1009.1 0.0
24/04:00am 22.5 20.0 5.0 32 9.0 SSW 7 9 4 5 1014.3 1008.8 0.0
24/03:30am 23.8 21.5 5.7 31 9.5 SSW 7 9 4 5 1014.1 1008.6 0.0
24/03:00am 22.9 20.0 4.4 30 9.4 WSW 9 13 5 7 1014.2 1008.7 0.0
24/02:30am 23.3 20.8 4.8 30 9.5 WSW 7 9 4 5 1014.3 1008.8 0.0
24/02:00am 24.4 21.4 4.2 27 10.4 WSW 9 11 5 6 1014.1 1008.6 0.0
24/01:30am 24.8 21.4 4.0 26 10.7 SW 11 13 6 7 1014.1 1008.6 0.0
24/01:00am 25.3 21.6 4.4 26 10.8 SW 13 15 7 8 1014.3 1008.8 0.0
24/12:30am 26.2 22.4 4.1 24 11.4 SSW 13 15 7 8 1014.5 1009.0 0.0
24/12:00am 26.9 23.9 4.0 23 11.9 SSW 9 11 5 6 1014.6 1009.1 0.0
 
Date/Time
WST
Temp
°C
App
Temp
°C
Dew
Point
Rel
Hum
%
Delta-T
°C
Wind Press
QNH
hPa
Press
MSL
hPa
Rain
since 9 am
mm
Dir
 
Spd
km/h
Gust
km/h
Spd
kts
Gust
kts
23/11:30pm 28.3 24.1 3.9 21 12.7 WSW 15 17 8 9 1014.5 1009.0 0.0
23/11:00pm 29.3 25.3 4.7 21 13.1 WSW 15 20 8 11 1014.5 1009.0 0.0
23/10:30pm 29.2 26.7 4.6 21 13.1 SW 7 9 4 5 1014.5 1009.0 0.0
23/10:00pm 29.9 27.0 4.5 20 13.5 SW 9 13 5 7 1014.3 1008.8 0.0
23/09:30pm 30.3 27.1 4.9 20 13.6 SSW 11 13 6 7 1014.2 1008.7 0.0
23/09:00pm 31.2 27.6 4.9 19 14.2 SW 13 17 7 9 1014.1 1008.6 0.0
23/08:30pm 31.8 28.6 5.3 19 14.4 SSW 11 17 6 9 1013.9 1008.4 0.0
23/08:00pm 32.8 29.1 4.6 17 15.3 SSE 13 15 7 8 1013.4 1008.0 0.0
23/07:30pm 33.2 30.0 4.9 17 15.4 W 11 17 6 9 1013.5 1008.1 0.0
23/07:00pm 33.7 28.3 4.4 16 15.9 SSE 22 39 12 21 1012.7 1007.2 0.0
23/06:30pm 34.3 31.7 4.0 15 16.4 SSW 7 15 4 8 1011.8 1006.3 0.0
23/06:00pm 35.0 30.2 2.5 13 17.2 SW 17 20 9 11 1011.7 1006.2 0.0
23/05:30pm 35.2 31.7 3.7 14 17.0 N 11 17 6 9 1011.0 1005.5 0.0
23/05:00pm 35.0 31.1 3.5 14 17.0 NNW 13 20 7 11 1010.9 1005.4 0.0
23/04:30pm 36.1 32.4 2.2 12 18.0 NW 11 20 6 11 1010.7 1005.1 0.0
23/04:00pm 36.0 31.5 2.1 12 18.0 WNW 15 20 8 11 1010.6 1005.0 0.0
23/03:30pm 35.9 31.8 2.1 12 17.9 W 13 26 7 14 1010.7 1005.1 0.0
23/03:00pm 36.9 32.7 1.6 11 18.7 NW 13 22 7 12 1011.0 1005.5 0.0
23/02:30pm 36.9 29.8 1.6 11 18.6 WNW 28 37 15 20 1011.1 1005.6 0.0
23/02:00pm 36.5 30.7 2.5 12 18.2 WNW 22 35 12 19 1011.5 1006.0 0.0
23/01:30pm 36.8 32.0 2.8 12 18.3 WNW 17 19 9 10 1011.9 1006.4 0.0
23/01:00pm 36.5 31.3 3.7 13 17.9 WNW 20 32 11 17 1012.2 1006.7 0.0
23/12:30pm 36.3 31.1 2.4 12 18.1 NW 19 30 10 16 1012.6 1007.1 0.0
23/12:00pm 35.8 30.5 2.0 12 17.9 NW 19 30 10 16 1013.1 1007.6 0.0
23/11:30am 35.6 30.5 0.6 11 18.1 NW 17 24 9 13 1013.7 1008.2 0.0
23/11:00am 33.6 30.7 2.4 14 16.4 NNE 7 19 4 10 1014.1 1008.6 0.0
23/10:30am 32.3 29.0 2.4 15 15.6 N 9 17 5 9 1014.4 1008.9 0.0
23/10:00am 32.1 28.4 2.2 15 15.5 NNW 11 19 6 10 1014.6 1009.1 0.0
23/09:30am 30.1 27.2 2.4 17 14.3 SW 7 11 4 6 1014.8 1009.4 0.0
23/09:00am 30.0 27.2 3.1 18 14.0 SE 7 9 4 5 1014.8 1009.4 0.0
23/08:30am 28.8 26.1 3.6 20 13.1 S 7 13 4 7 1014.7 1009.2 0.0
23/08:00am 27.9 24.0 3.6 21 12.6 SSW 13 17 7 9 1014.8 1009.4 0.0
23/07:30am 27.4 24.3 3.8 22 12.2 SW 9 13 5 7 1014.8 1009.4 0.0
23/07:00am 26.0 23.4 3.3 23 11.6 SW 6 9 3 5 1014.6 1009.1 0.0
23/06:30am 24.8 22.6 3.5 25 10.8 SW 4 6 2 3 1014.2 1008.7 0.0
23/06:00am 23.5 21.3 3.4 27 10.1 SW 4 6 2 3 1013.9 1008.4 0.0
23/05:30am 22.7 20.0 3.8 29 9.5 SW 7 11 4 6 1013.4 1008.0 0.0
23/05:00am 23.0 19.6 4.0 29 9.6 SSW 11 11 6 6 1013.2 1007.7 0.0
23/04:30am 23.9 21.3 3.2 26 10.4 SSW 6 7 3 4 1013.0 1007.5 0.0
23/04:00am 23.6 21.0 4.0 28 10.0 SW 7 9 4 5 1012.7 1007.2 0.0
23/03:30am 24.2 20.8 4.0 27 10.3 WSW 11 17 6 9 1012.6 1007.1 0.0
23/03:00am 24.1 21.5 4.0 27 10.3 WSW 7 9 4 5 1012.4 1006.9 0.0
23/02:30am 24.7 21.5 2.8 24 11.0 WSW 9 13 5 7 1012.5 1007.0 0.0
23/02:00am 24.1 21.5 4.0 27 10.3 WSW 7 11 4 6 1012.6 1007.1 0.0
23/01:30am 23.2 22.3 6.0 33 9.0 CALM 0 0 0 0 1012.7 1007.2 0.0
23/01:00am 25.4 22.9 4.0 25 11.0 WSW 6 9 3 5 1012.9 1007.4 0.0
23/12:30am 26.8 23.5 2.7 21 12.2 WSW 9 11 5 6 1013.1 1007.6 0.0
23/12:00am 26.7 23.5 3.2 22 12.0 WSW 9 13 5 7 1013.3 1007.8 0.0
 
Date/Time
WST
Temp
°C
App
Temp
°C
Dew
Point
Rel
Hum
%
Delta-T
°C
Wind Press
QNH
hPa
Press
MSL
hPa
Rain
since 9 am
mm
Dir
 
Spd
km/h
Gust
km/h
Spd
kts
Gust
kts
22/11:30pm 27.2 23.9 2.3 20 12.6 WNW 9 13 5 7 1013.5 1008.1 0.0
22/11:00pm 27.5 24.2 2.6 20 12.7 W 9 13 5 7 1013.4 1008.0 0.0
22/10:30pm 27.5 23.6 3.2 21 12.5 W 13 17 7 9 1013.4 1008.0 0.0
22/10:00pm 25.8 24.7 4.9 26 10.9 CALM 0 0 0 0 1013.3 1007.8 0.0
22/09:30pm 26.6 24.6 4.4 24 11.6 WSW 4 6 2 3 1013.2 1007.7 0.0
22/09:00pm 29.5 26.9 4.2 20 13.4 WSW 7 11 4 6 1012.9 1007.4 0.0
22/08:30pm 30.3 26.9 1.7 16 14.6 WSW 9 13 5 7 1012.6 1007.1 0.0
22/08:00pm 31.3 27.5 1.6 15 15.2 SW 11 15 6 8 1012.3 1006.8 0.0
22/07:30pm 32.3 28.3 0.4 13 16.1 SW 11 15 6 8 1011.9 1006.4 0.0
22/07:00pm 33.5 28.3 0.2 12 16.9 SW 17 24 9 13 1011.5 1006.0 0.0
22/06:30pm 34.7 28.5 -0.1 11 17.7 WSW 22 30 12 16 1011.2 1005.7 0.0
22/06:00pm 35.4 29.1 -0.8 10 18.3 SW 22 30 12 16 1010.9 1005.4 0.0
22/05:30pm 36.0 30.2 -0.4 10 18.5 WSW 20 26 11 14 1010.7 1005.1 0.0
22/05:00pm 36.5 30.5 -1.4 9 19.1 W 20 30 11 16 1010.3 1004.8 0.0
22/04:30pm 37.4 32.5 -0.8 9 19.5 NW 15 22 8 12 1010.2 1004.7 0.0
22/04:00pm 38.0 32.4 -0.3 9 19.8 W 19 28 10 15 1010.2 1004.7 0.0
22/03:30pm 37.1 30.4 -1.0 9 19.4 WNW 24 35 13 19 1010.4 1004.9 0.0
22/03:00pm 37.8 31.7 -2.1 8 20.0 WNW 20 41 11 22 1010.4 1004.9 0.0
22/02:39pm 38.2 30.9 -0.2 9 19.9 NW 28 48 15 26 1010.8 1005.2 0.0
22/02:30pm 38.5 33.3 0.0 9 20.0 WNW 17 26 9 14 1010.8 1005.2 0.0
22/02:01pm 38.6 30.6 0.1 9 20.1 N 32 54 17 29 1010.8 1005.2 0.0
22/02:00pm 38.3 32.5 -0.1 9 19.9 N 20 41 11 22 1010.7 1005.1 0.0
22/01:30pm 38.6 32.7 1.6 10 19.7 WNW 22 32 12 17 1011.6 1006.1 0.0
22/01:00pm 36.7 30.9 0.1 10 18.9 SW 20 26 11 14 1012.1 1006.5 0.0
22/12:40pm 36.8 29.3 -1.2 9 19.2 NNW 28 56 15 30 1012.4 1006.9 0.0
22/12:30pm 37.7 32.2 0.9 10 19.3 WNW 19 30 10 16 1012.5 1007.0 0.0
22/12:00pm 36.1 30.3 -0.3 10 18.6 NNW 20 26 11 14 1012.8 1007.3 0.0
22/11:30am 35.9 30.0 -0.5 10 18.5 WNW 20 35 11 19 1013.1 1007.6 0.0
22/11:19am 35.8 28.4 -0.5 10 18.4 NNW 28 43 15 23 1013.2 1007.7 0.0
22/11:00am 34.7 30.2 -0.1 11 17.7 NNW 13 22 7 12 1013.4 1008.0 0.0
22/10:30am 33.5 29.8 0.2 12 16.9 SW 9 15 5 8 1013.8 1008.3 0.0
22/10:00am 32.3 28.3 0.4 13 16.1 SW 11 17 6 9 1014.1 1008.6 0.0
22/09:30am 31.7 28.0 -0.1 13 15.8 W 9 17 5 9 1014.2 1008.7 0.0
22/09:00am 31.0 27.2 -0.6 13 15.5 W 9 13 5 7 1014.5 1009.0 0.0
22/08:30am 29.5 26.3 -0.8 14 14.7 SSE 6 13 3 7 1014.6 1009.1 0.0
22/08:00am 28.4 23.8 -0.7 15 14.0 S 13 15 7 8 1014.6 1009.1 0.0
22/07:30am 27.1 22.8 -1.7 15 13.5 SSW 11 13 6 7 1014.7 1009.2 0.0
22/07:00am 25.9 22.6 -1.0 17 12.7 SSW 6 9 3 5 1014.4 1008.9 0.0

Other Formats:

Comma delimited format used in spreadsheet applications
http://www.bom.gov.au/fwo/IDW60801/IDW60801.99312.axf

JavaScript Object Notation format (JSON) in row-major order
http://www.bom.gov.au/fwo/IDW60801/IDW60801.99312.json